createdAt,value
2022-08-22T00:03:18.315Z,45
2022-08-22T00:03:50.588Z,48
2022-08-22T00:09:17.512Z,67
2022-08-22T00:14:17.046Z,67
2022-08-22T00:19:16.556Z,67
2022-08-22T00:24:15.682Z,67
2022-08-22T00:29:16.496Z,66
2022-08-22T00:34:15.318Z,66
2022-08-22T00:39:14.938Z,65
2022-08-22T00:44:14.396Z,65
2022-08-22T00:49:13.981Z,64
2022-08-22T00:54:15.898Z,63
2022-08-22T00:58:51.358Z,62
2022-08-22T01:03:50.854Z,62
2022-08-22T01:08:50.151Z,62
2022-08-22T01:13:49.872Z,62
2022-08-22T01:18:49.251Z,62
2022-08-22T01:23:48.829Z,63
2022-08-22T01:28:48.078Z,64
2022-08-22T01:33:46.630Z,64
2022-08-22T01:38:45.456Z,65
2022-08-22T01:44:01.352Z,65
2022-08-22T01:48:44.378Z,66
2022-08-22T01:53:43.349Z,67
2022-08-22T01:58:42.734Z,67
2022-08-22T02:03:42.892Z,67
2022-08-22T02:08:41.681Z,68
2022-08-22T02:13:41.264Z,68
2022-08-22T02:18:39.356Z,68
2022-08-22T02:23:39.678Z,68
2022-08-22T02:28:50.883Z,69
2022-08-22T02:33:38.120Z,69
2022-08-22T02:38:37.741Z,69
2022-08-22T02:43:37.362Z,69
2022-08-22T02:48:37.447Z,70
2022-08-22T02:53:36.331Z,70
2022-08-22T02:58:34.490Z,69
2022-08-22T02:59:55.731Z,69
2022-08-22T03:04:55.333Z,70
2022-08-22T03:09:54.374Z,71
2022-08-22T03:14:54.124Z,71
2022-08-22T03:19:53.878Z,72
2022-08-22T03:24:56.040Z,72
2022-08-22T03:29:52.659Z,72
2022-08-22T03:34:52.179Z,73
2022-08-22T03:39:49.518Z,73
2022-08-22T03:44:48.602Z,74
2022-08-22T03:49:47.697Z,74
2022-08-22T03:54:46.867Z,75
2022-08-22T03:58:55.681Z,75
2022-08-22T04:03:55.751Z,76
2022-08-22T04:08:55.422Z,76
2022-08-22T04:13:54.771Z,76
2022-08-22T04:18:55.092Z,77
2022-08-22T04:23:51.548Z,77
2022-08-22T04:28:50.479Z,77
2022-08-22T04:33:50.126Z,78
2022-08-22T04:38:49.665Z,78
2022-08-22T04:43:49.269Z,78
2022-08-22T04:48:48.787Z,78
2022-08-22T04:53:47.909Z,79
2022-08-22T04:58:46.999Z,79
2022-08-22T05:03:46.010Z,79
2022-08-22T05:08:53.645Z,79
2022-08-22T05:13:44.257Z,79
2022-08-22T05:18:43.553Z,79
2022-08-22T05:23:43.100Z,79
2022-08-22T05:28:42.592Z,78
2022-08-22T05:33:42.504Z,78
2022-08-22T05:38:41.397Z,77
2022-08-22T05:43:40.685Z,75
2022-08-22T05:48:39.401Z,73
2022-08-22T05:53:38.657Z,71
2022-08-22T05:58:37.943Z,70
2022-08-22T06:03:36.963Z,69
2022-08-22T06:08:36.417Z,68
2022-08-22T06:13:36.437Z,67
2022-08-22T06:18:34.862Z,66
2022-08-22T06:23:34.105Z,65
2022-08-22T06:28:34.398Z,64
2022-08-22T06:33:31.417Z,63
2022-08-22T06:38:30.540Z,62
2022-08-22T06:43:30.089Z,61
2022-08-22T06:48:29.646Z,60
2022-08-22T06:53:29.729Z,59
2022-08-22T06:58:34.721Z,58
2022-08-22T06:59:51.651Z,58
2022-08-22T07:04:50.774Z,56
2022-08-22T07:09:50.874Z,56
2022-08-22T07:14:47.748Z,54
2022-08-22T07:19:47.009Z,54
2022-08-22T07:24:46.845Z,52
2022-08-22T07:29:46.417Z,52
2022-08-22T07:35:14.334Z,51
2022-08-22T07:39:46.039Z,51
2022-08-22T07:44:47.179Z,49
2022-08-22T07:50:17.958Z,46
2022-08-22T07:54:44.722Z,45
2022-08-22T07:59:14.428Z,45
2022-08-22T08:04:14.287Z,44
2022-08-22T08:09:25.509Z,43
2022-08-22T08:14:14.407Z,43
2022-08-22T08:19:13.355Z,43
2022-08-22T08:24:12.830Z,43
2022-08-22T08:29:20.741Z,43
2022-08-22T08:34:17.052Z,44
2022-08-22T08:39:17.003Z,43
2022-08-22T08:44:16.793Z,43
2022-08-22T08:49:16.834Z,43
2022-08-22T08:54:16.390Z,42
2022-08-22T08:58:56.385Z,42
2022-08-22T09:03:54.537Z,41
2022-08-22T09:08:56.449Z,40
2022-08-22T09:13:53.163Z,39
2022-08-22T09:18:53.465Z,38
2022-08-22T09:23:54.121Z,38
2022-08-22T09:28:51.922Z,37
2022-08-22T09:33:52.506Z,36
2022-08-22T09:38:50.542Z,35
2022-08-22T09:43:49.635Z,36
2022-08-22T09:48:49.124Z,36
2022-08-22T09:53:48.387Z,36
2022-08-22T09:58:47.060Z,34
2022-08-22T10:03:48.129Z,35
2022-08-22T10:08:46.505Z,34
2022-08-22T10:13:46.331Z,33
2022-08-22T10:18:54.729Z,33
2022-08-22T10:23:46.504Z,32
2022-08-22T10:28:44.086Z,31
2022-08-22T10:33:45.089Z,30
2022-08-22T10:38:47.351Z,31
2022-08-22T10:43:41.503Z,33
2022-08-22T10:48:40.581Z,32
2022-08-22T10:53:41.458Z,31
2022-08-22T10:58:42.431Z,31
2022-08-22T11:03:39.167Z,31
2022-08-22T11:08:39.803Z,31
2022-08-22T11:13:36.590Z,29
2022-08-22T11:18:35.872Z,30
2022-08-22T11:23:35.149Z,29
2022-08-22T11:28:34.940Z,29
2022-08-22T11:33:47.813Z,29
2022-08-22T11:38:34.288Z,29
2022-08-22T11:43:33.410Z,28
2022-08-22T11:48:32.963Z,27
2022-08-22T11:53:33.331Z,28
2022-08-22T11:58:30.424Z,27
2022-08-22T11:59:53.028Z,27
2022-08-22T12:04:51.320Z,27
2022-08-22T12:09:51.337Z,26
2022-08-22T12:14:50.302Z,25
2022-08-22T12:20:16.200Z,25
2022-08-22T12:29:48.779Z,28
2022-08-22T12:34:48.357Z,28
2022-08-22T12:39:45.199Z,28
2022-08-22T12:44:44.509Z,29
2022-08-22T12:49:52.491Z,29
2022-08-22T12:54:43.142Z,29
2022-08-22T12:59:18.590Z,29
2022-08-22T13:04:34.156Z,28
2022-08-22T13:09:19.181Z,27
2022-08-22T13:14:22.951Z,27
2022-08-22T13:19:17.518Z,26
2022-08-22T13:24:29.218Z,26
2022-08-22T13:29:27.374Z,25
2022-08-22T13:34:20.365Z,26
2022-08-22T13:39:15.587Z,26
2022-08-22T13:44:15.879Z,26
2022-08-22T13:49:13.244Z,26
2022-08-22T13:54:12.730Z,27
2022-08-22T13:58:52.681Z,26
2022-08-22T14:03:52.581Z,26
2022-08-22T14:08:51.657Z,26
2022-08-22T14:13:51.144Z,27
2022-08-22T14:18:49.934Z,28
2022-08-22T14:23:50.162Z,28
2022-08-22T14:28:46.879Z,27
2022-08-22T14:33:47.847Z,25
2022-08-22T14:38:46.932Z,26
2022-08-22T14:43:45.354Z,25
2022-08-22T14:48:46.336Z,25
2022-08-22T14:53:45.248Z,25
2022-08-22T14:58:46.015Z,24
2022-08-22T15:03:44.593Z,25
2022-08-22T15:08:46.970Z,25
2022-08-22T15:13:41.780Z,25
2022-08-22T15:18:52.632Z,26
2022-08-22T15:23:46.868Z,25
2022-08-22T15:28:53.628Z,25
2022-08-22T15:33:39.036Z,26
2022-08-22T15:38:45.804Z,26
2022-08-22T15:43:38.048Z,26
2022-08-22T15:48:37.153Z,26
2022-08-22T15:53:37.202Z,25
2022-08-22T15:58:34.192Z,25
2022-08-22T16:03:33.621Z,24
2022-08-22T16:08:33.794Z,24
2022-08-22T16:13:32.110Z,25
2022-08-22T16:18:32.173Z,25
2022-08-22T16:23:31.839Z,25
2022-08-22T16:28:58.720Z,24
2022-08-22T16:33:29.447Z,24
2022-08-22T16:38:28.654Z,25
2022-08-22T16:43:29.597Z,25
2022-08-22T16:48:26.290Z,25
2022-08-22T16:53:25.691Z,26
2022-08-22T16:58:23.059Z,26
2022-08-22T17:03:22.534Z,26
2022-08-22T17:08:22.475Z,26
2022-08-22T17:13:27.471Z,27
2022-08-22T17:18:20.567Z,27
2022-08-22T17:23:18.970Z,26
2022-08-22T17:28:17.691Z,26
2022-08-22T17:33:16.503Z,26
2022-08-22T17:38:16.129Z,26
2022-08-22T17:43:14.841Z,26
2022-08-22T17:48:14.820Z,26
2022-08-22T17:53:17.161Z,27
2022-08-22T17:58:37.784Z,27
2022-08-22T17:59:36.094Z,27
2022-08-22T18:04:33.147Z,28
2022-08-22T18:09:31.902Z,30
2022-08-22T18:14:31.092Z,30
2022-08-22T18:19:29.887Z,31
2022-08-22T18:24:33.874Z,33
2022-08-22T18:29:29.105Z,33
2022-08-22T18:34:28.805Z,34
2022-08-22T18:39:29.874Z,34
2022-08-22T18:44:26.099Z,34
2022-08-22T18:49:25.080Z,35
2022-08-22T18:54:24.755Z,36
2022-08-22T18:59:06.413Z,37
2022-08-22T19:03:48.477Z,38
2022-08-22T19:08:54.024Z,39
2022-08-22T19:13:47.686Z,40
2022-08-22T19:18:46.334Z,41
2022-08-22T19:23:45.376Z,41
2022-08-22T19:28:44.180Z,42
2022-08-22T19:33:43.821Z,43
2022-08-22T19:38:42.407Z,45
2022-08-22T19:43:41.939Z,45
2022-08-22T19:48:41.688Z,46
2022-08-22T19:53:41.363Z,46
2022-08-22T19:58:39.944Z,47
2022-08-22T20:03:39.384Z,48
2022-08-22T20:08:37.716Z,49
2022-08-22T20:13:36.916Z,48
2022-08-22T20:19:06.959Z,50
2022-08-22T20:23:34.822Z,50
2022-08-22T20:28:34.572Z,51
2022-08-22T20:33:34.294Z,52
2022-08-22T20:38:33.915Z,51
2022-08-22T20:43:33.143Z,52
2022-08-22T20:48:31.939Z,53
2022-08-22T20:53:29.873Z,53
2022-08-22T20:58:29.035Z,54
2022-08-22T20:59:50.556Z,54
2022-08-22T21:04:50.433Z,55
2022-08-22T21:09:49.640Z,56
2022-08-22T21:14:49.570Z,56
2022-08-22T21:19:48.868Z,57
2022-08-22T21:24:48.131Z,58
2022-08-22T21:29:47.403Z,58
2022-08-22T21:34:44.713Z,58
2022-08-22T21:39:43.434Z,59
2022-08-22T21:44:42.821Z,60
2022-08-22T21:49:42.306Z,61
2022-08-22T21:54:41.890Z,61
2022-08-22T21:58:53.540Z,59
2022-08-22T22:03:51.896Z,58
2022-08-22T22:08:51.267Z,58
2022-08-22T22:13:51.260Z,57
2022-08-22T22:18:48.317Z,56
2022-08-22T22:23:47.339Z,56
2022-08-22T22:28:47.339Z,57
2022-08-22T22:33:46.915Z,58
2022-08-22T22:38:46.364Z,58
2022-08-22T22:43:46.186Z,58
2022-08-22T22:48:45.549Z,59
2022-08-22T22:53:44.435Z,60
2022-08-22T22:58:43.100Z,61
2022-08-22T23:00:03.110Z,61
2022-08-22T23:05:02.638Z,61
2022-08-22T23:10:02.267Z,60
2022-08-22T23:15:01.364Z,60
2022-08-22T23:20:01.196Z,61
2022-08-22T23:25:01.484Z,62
2022-08-22T23:29:59.890Z,61
2022-08-22T23:34:59.470Z,60
2022-08-22T23:39:56.763Z,60
2022-08-22T23:44:57.538Z,60
2022-08-22T23:49:55.385Z,59
2022-08-22T23:54:56.616Z,59
2022-08-22T23:59:17.232Z,59
